createdAt,value
2019-01-09T00:01:59.576Z,1.50
2019-01-09T00:04:27.932Z,1.50
2019-01-09T00:06:56.273Z,1.50
2019-01-09T00:09:24.865Z,1.50
2019-01-09T00:11:53.250Z,1.50
2019-01-09T00:14:21.534Z,1.50
2019-01-09T00:16:50.049Z,1.50
2019-01-09T00:19:18.417Z,1.40
2019-01-09T00:21:46.787Z,1.40
2019-01-09T00:24:15.724Z,1.40
2019-01-09T00:26:44.024Z,1.40
2019-01-09T00:29:12.604Z,1.40
2019-01-09T00:31:41.294Z,1.50
2019-01-09T00:34:09.644Z,1.50
2019-01-09T00:36:37.975Z,1.50
2019-01-09T00:39:06.956Z,1.50
2019-01-09T00:41:35.330Z,1.50
2019-01-09T00:44:03.708Z,1.50
2019-01-09T00:46:32.444Z,1.50
2019-01-09T00:49:00.783Z,1.50
2019-01-09T00:51:29.109Z,1.60
2019-01-09T00:53:57.510Z,1.60
2019-01-09T00:56:25.991Z,1.60
2019-01-09T00:58:54.306Z,1.60
2019-01-09T01:01:22.747Z,1.60
2019-01-09T01:04:59.585Z,1.60
2019-01-09T01:09:40.875Z,1.60
2019-01-09T01:12:26.714Z,1.60
2019-01-09T01:15:06.313Z,1.60
2019-01-09T01:19:00.056Z,1.70
2019-01-09T01:21:34.188Z,1.60
2019-01-09T01:24:13.778Z,1.60
2019-01-09T01:26:47.543Z,1.60
2019-01-09T01:29:28.699Z,1.60
2019-01-09T01:32:19.769Z,1.60
2019-01-09T01:37:04.646Z,1.60
2019-01-09T01:39:41.828Z,1.60
2019-01-09T01:44:24.922Z,1.60
2019-01-09T01:49:08.267Z,1.60
2019-01-09T01:51:52.026Z,1.60
2019-01-09T01:56:38.973Z,1.70
2019-01-09T01:59:18.634Z,1.70
2019-01-09T02:02:37.651Z,1.70
2019-01-09T02:05:23.268Z,1.80
2019-01-09T02:08:19.995Z,1.80
2019-01-09T02:11:08.173Z,1.80
2019-01-09T02:13:49.626Z,1.90
2019-01-09T02:17:05.925Z,1.90
2019-01-09T02:19:41.982Z,1.90
2019-01-09T02:22:54.608Z,1.80
2019-01-09T02:28:37.422Z,1.80
2019-01-09T02:31:20.632Z,1.90
2019-01-09T02:33:49.549Z,1.90
2019-01-09T02:36:18.124Z,1.90
2019-01-09T02:38:46.442Z,1.80
2019-01-09T02:41:14.897Z,1.80
2019-01-09T02:43:43.195Z,1.80
2019-01-09T02:46:11.516Z,1.90
2019-01-09T02:48:39.960Z,1.90
2019-01-09T02:51:08.541Z,1.90
2019-01-09T02:53:36.838Z,1.90
2019-01-09T02:56:05.251Z,1.90
2019-01-09T02:58:33.555Z,1.90
2019-01-09T03:01:02.022Z,1.90
2019-01-09T03:03:31.006Z,1.90
2019-01-09T03:05:59.386Z,1.90
2019-01-09T03:08:27.772Z,1.90
2019-01-09T03:10:56.754Z,1.90
2019-01-09T03:13:25.044Z,1.90
2019-01-09T03:16:00.016Z,1.90
2019-01-09T03:18:28.333Z,1.90
2019-01-09T03:20:56.654Z,1.90
2019-01-09T03:23:25.392Z,1.90
2019-01-09T03:25:53.735Z,1.90
2019-01-09T03:28:22.080Z,1.90
2019-01-09T03:30:50.586Z,1.90
2019-01-09T03:33:18.934Z,1.90
2019-01-09T03:35:47.299Z,1.90
2019-01-09T03:38:15.833Z,1.90
2019-01-09T03:40:44.294Z,1.90
2019-01-09T03:43:12.687Z,1.90
2019-01-09T03:45:41.155Z,1.90
2019-01-09T03:48:09.510Z,1.90
2019-01-09T03:50:37.853Z,1.90
2019-01-09T03:53:06.331Z,1.90
2019-01-09T03:55:34.658Z,1.90
2019-01-09T03:58:03.023Z,1.90
2019-01-09T04:00:31.679Z,1.90
2019-01-09T04:02:59.995Z,1.90
2019-01-09T04:05:28.383Z,1.90
2019-01-09T04:07:56.820Z,1.90
2019-01-09T04:10:25.442Z,1.90
2019-01-09T04:12:53.769Z,1.90
2019-01-09T04:15:22.783Z,1.90
2019-01-09T04:17:51.099Z,1.90
2019-01-09T04:20:19.443Z,1.90
2019-01-09T04:22:47.871Z,1.90
2019-01-09T04:25:19.080Z,1.90
2019-01-09T04:27:47.575Z,1.90
2019-01-09T04:30:16.057Z,1.90
2019-01-09T04:32:44.368Z,1.80
2019-01-09T04:35:12.714Z,1.90
2019-01-09T04:37:41.637Z,1.90
2019-01-09T04:40:10.099Z,1.90
2019-01-09T04:42:38.388Z,1.90
2019-01-09T04:45:07.144Z,1.90
2019-01-09T04:47:35.555Z,1.90
2019-01-09T04:50:04.346Z,1.90
2019-01-09T04:52:33.133Z,1.90
2019-01-09T04:55:01.449Z,1.90
2019-01-09T04:57:30.068Z,1.90
2019-01-09T04:59:58.570Z,1.90
2019-01-09T05:02:26.860Z,1.90
2019-01-09T05:04:55.223Z,1.90
2019-01-09T05:07:23.858Z,1.90
2019-01-09T05:09:53.771Z,1.90
2019-01-09T05:12:21.423Z,1.80
2019-01-09T05:14:49.929Z,1.80
2019-01-09T05:17:18.284Z,1.80
2019-01-09T05:19:46.641Z,1.80
2019-01-09T05:22:15.197Z,1.90
2019-01-09T05:24:45.515Z,1.80
2019-01-09T05:27:12.298Z,1.80
2019-01-09T05:29:41.254Z,1.80
2019-01-09T05:32:09.546Z,1.80
2019-01-09T05:34:37.842Z,1.80
2019-01-09T05:37:09.704Z,1.80
2019-01-09T05:39:39.549Z,1.80
2019-01-09T05:42:03.035Z,1.80
2019-01-09T05:44:31.708Z,1.80
2019-01-09T05:47:00.109Z,1.80
2019-01-09T05:49:28.412Z,1.80
2019-01-09T05:51:57.265Z,1.80
2019-01-09T05:54:25.622Z,1.80
2019-01-09T05:56:53.971Z,1.80
2019-01-09T05:59:22.395Z,1.80
2019-01-09T06:01:50.718Z,1.80
2019-01-09T06:04:19.026Z,1.80
2019-01-09T06:06:47.837Z,1.80
2019-01-09T06:09:16.156Z,1.90
2019-01-09T06:11:44.438Z,1.90
2019-01-09T06:14:12.934Z,1.90
2019-01-09T06:16:47.845Z,1.90
2019-01-09T06:19:16.657Z,1.80
2019-01-09T06:21:45.055Z,1.80
2019-01-09T06:24:13.400Z,1.80
2019-01-09T06:26:41.839Z,1.80
2019-01-09T06:29:10.151Z,1.80
2019-01-09T06:31:38.482Z,1.80
2019-01-09T06:34:07.125Z,1.80
2019-01-09T06:36:35.414Z,1.80
2019-01-09T06:39:04.683Z,1.80
2019-01-09T06:41:33.420Z,1.80
2019-01-09T06:44:01.791Z,1.80
2019-01-09T06:46:30.168Z,1.80
2019-01-09T06:48:58.720Z,1.80
2019-01-09T06:51:27.085Z,1.80
2019-01-09T06:53:55.461Z,1.80
2019-01-09T06:56:24.212Z,1.80
2019-01-09T06:58:52.518Z,1.80
2019-01-09T07:01:21.054Z,1.80
2019-01-09T07:03:49.531Z,1.80
2019-01-09T07:06:17.865Z,1.80
2019-01-09T07:08:46.166Z,1.80
2019-01-09T07:11:14.596Z,1.80
2019-01-09T07:13:42.947Z,1.80
2019-01-09T07:16:11.271Z,1.80
2019-01-09T07:18:39.706Z,1.80
2019-01-09T07:21:08.020Z,1.80
2019-01-09T07:23:36.421Z,1.90
2019-01-09T07:26:05.132Z,1.80
2019-01-09T07:28:33.444Z,1.70
2019-01-09T07:31:01.793Z,1.60
2019-01-09T07:33:30.437Z,1.50
2019-01-09T07:35:58.791Z,1.40
2019-01-09T07:38:27.120Z,1.30
2019-01-09T07:40:55.861Z,1.20
2019-01-09T07:43:24.190Z,1.20
2019-01-09T07:45:52.525Z,1.20
2019-01-09T07:48:21.312Z,1.20
2019-01-09T07:50:49.797Z,1.20
2019-01-09T07:53:18.266Z,1.20
2019-01-09T07:55:46.718Z,1.20
2019-01-09T07:58:15.067Z,1.20
2019-01-09T08:00:43.514Z,1.20
2019-01-09T08:03:12.336Z,1.10
2019-01-09T08:05:40.654Z,1.10
2019-01-09T08:08:09.032Z,1.10
2019-01-09T08:10:37.778Z,1.10
2019-01-09T08:13:06.115Z,1.20
2019-01-09T08:15:34.457Z,1.20
2019-01-09T08:18:02.907Z,1.20
2019-01-09T08:20:31.233Z,1.20
2019-01-09T08:22:59.533Z,1.20
2019-01-09T08:25:27.966Z,1.20
2019-01-09T08:27:56.452Z,1.20
2019-01-09T08:30:24.847Z,1.20
2019-01-09T08:32:55.515Z,1.20
2019-01-09T08:35:23.873Z,1.10
2019-01-09T08:37:52.208Z,1.10
2019-01-09T08:40:20.764Z,1.10
2019-01-09T08:42:49.132Z,1.00
2019-01-09T08:45:17.453Z,1.00
2019-01-09T08:47:46.059Z,1.00
2019-01-09T08:50:14.499Z,1.00
2019-01-09T08:52:42.825Z,0.90
2019-01-09T08:55:11.644Z,0.80
2019-01-09T08:57:40.026Z,0.80
2019-01-09T09:00:10.220Z,0.80
2019-01-09T09:02:39.077Z,0.80
2019-01-09T09:05:07.573Z,0.80
2019-01-09T09:07:35.989Z,0.80
2019-01-09T09:10:05.948Z,0.80
2019-01-09T09:12:34.318Z,0.80
2019-01-09T09:15:02.616Z,0.80
2019-01-09T09:17:31.247Z,0.80
2019-01-09T09:19:59.572Z,0.80
2019-01-09T09:22:28.094Z,0.80
2019-01-09T09:24:56.963Z,0.80
2019-01-09T09:27:25.424Z,0.80
2019-01-09T09:29:53.788Z,0.90
2019-01-09T09:32:22.378Z,0.90
2019-01-09T09:34:50.717Z,0.90
2019-01-09T09:37:19.165Z,0.90
2019-01-09T09:39:47.586Z,1.00
2019-01-09T09:42:15.924Z,1.00
2019-01-09T09:44:44.415Z,1.10
2019-01-09T09:47:13.150Z,1.10
2019-01-09T09:49:41.495Z,1.10
2019-01-09T09:52:09.862Z,1.20
2019-01-09T09:54:38.389Z,1.20
2019-01-09T09:57:06.751Z,1.30
2019-01-09T09:59:35.137Z,1.30
2019-01-09T10:02:03.982Z,1.40
2019-01-09T10:04:32.593Z,1.40
2019-01-09T10:07:01.380Z,1.40
2019-01-09T10:09:30.716Z,1.40
2019-01-09T10:11:59.240Z,1.40
2019-01-09T10:14:27.666Z,1.40
2019-01-09T10:16:56.397Z,1.40
2019-01-09T10:19:25.095Z,1.40
2019-01-09T10:21:53.774Z,1.40
2019-01-09T10:24:22.449Z,1.50
2019-01-09T10:26:50.811Z,1.50
2019-01-09T10:29:19.141Z,1.40
2019-01-09T10:31:47.741Z,1.40
2019-01-09T10:34:16.572Z,1.50
2019-01-09T10:36:44.957Z,1.40
2019-01-09T10:39:13.636Z,1.50
2019-01-09T10:41:42.016Z,1.40
2019-01-09T10:44:18.636Z,1.40
2019-01-09T10:46:39.387Z,1.40
2019-01-09T10:49:07.736Z,1.30
2019-01-09T10:51:36.366Z,1.30
2019-01-09T10:54:04.997Z,1.40
2019-01-09T10:56:33.713Z,1.40
2019-01-09T10:59:02.196Z,1.40
2019-01-09T11:01:31.195Z,1.40
2019-01-09T11:03:59.511Z,1.50
2019-01-09T11:06:27.914Z,1.50
2019-01-09T11:08:56.626Z,1.50
2019-01-09T11:11:25.161Z,1.50
2019-01-09T11:13:53.466Z,1.50
2019-01-09T11:16:21.946Z,1.50
2019-01-09T11:18:50.322Z,1.60
2019-01-09T11:21:18.625Z,1.60
2019-01-09T11:23:47.506Z,1.70
2019-01-09T11:26:15.876Z,1.70
2019-01-09T11:28:44.226Z,1.70
2019-01-09T11:31:12.817Z,1.70
2019-01-09T11:33:41.290Z,1.70
2019-01-09T11:36:09.675Z,1.70
2019-01-09T11:38:38.386Z,1.70
2019-01-09T11:41:06.763Z,1.70
2019-01-09T11:43:35.410Z,1.70
2019-01-09T11:46:03.889Z,1.80
2019-01-09T11:48:32.308Z,1.80
2019-01-09T11:51:00.867Z,1.80
2019-01-09T11:53:29.287Z,1.80
2019-01-09T11:55:57.955Z,1.80
2019-01-09T11:58:26.356Z,1.80
2019-01-09T12:00:55.320Z,1.80
2019-01-09T12:03:23.653Z,1.80
2019-01-09T12:05:52.012Z,1.80
2019-01-09T12:08:20.529Z,1.80
2019-01-09T12:10:48.952Z,1.80
2019-01-09T12:13:17.330Z,1.80
2019-01-09T12:15:45.891Z,1.80
2019-01-09T12:18:14.252Z,1.80
2019-01-09T12:20:42.637Z,1.80
2019-01-09T12:23:11.143Z,1.80
2019-01-09T12:25:39.500Z,1.80
2019-01-09T12:28:08.038Z,1.70
2019-01-09T12:30:36.586Z,1.70
2019-01-09T12:33:04.880Z,1.60
2019-01-09T12:35:33.272Z,1.60
2019-01-09T12:38:01.906Z,1.60
2019-01-09T12:40:30.253Z,1.60
2019-01-09T12:42:58.551Z,1.60
2019-01-09T12:45:27.655Z,1.60
2019-01-09T12:47:55.962Z,1.60
2019-01-09T12:50:25.739Z,1.60
2019-01-09T12:52:54.780Z,1.60
2019-01-09T12:55:23.213Z,1.60
2019-01-09T12:57:51.676Z,1.60
2019-01-09T13:00:22.388Z,1.60
2019-01-09T13:02:50.791Z,1.60
2019-01-09T13:05:19.190Z,1.60
2019-01-09T13:07:47.913Z,1.60
2019-01-09T13:10:16.329Z,1.60
2019-01-09T13:12:44.724Z,1.60
2019-01-09T13:15:13.605Z,1.60
2019-01-09T13:17:42.060Z,1.60
2019-01-09T13:20:11.503Z,1.60
2019-01-09T13:22:40.385Z,1.60
2019-01-09T13:25:09.273Z,1.60
2019-01-09T13:27:37.620Z,1.60
2019-01-09T13:30:09.202Z,1.60
2019-01-09T13:32:37.883Z,1.60
2019-01-09T13:35:07.203Z,1.70
2019-01-09T13:37:35.621Z,1.70
2019-01-09T13:40:04.881Z,1.70
2019-01-09T13:42:33.273Z,1.70
2019-01-09T13:45:01.683Z,1.60
2019-01-09T13:47:30.232Z,1.60
2019-01-09T13:49:58.605Z,1.60
2019-01-09T13:52:27.160Z,1.60
2019-01-09T13:54:55.406Z,1.60
2019-01-09T13:57:24.167Z,1.60
2019-01-09T13:59:52.513Z,1.60
2019-01-09T14:02:20.804Z,1.60
2019-01-09T14:04:49.231Z,1.50
2019-01-09T14:07:17.938Z,1.50
2019-01-09T14:09:46.319Z,1.50
2019-01-09T14:12:14.754Z,1.50
2019-01-09T14:14:43.438Z,1.50
2019-01-09T14:17:11.745Z,1.40
2019-01-09T14:19:40.107Z,1.40
2019-01-09T14:22:08.817Z,1.40
2019-01-09T14:24:37.132Z,1.40
2019-01-09T14:27:05.440Z,1.40
2019-01-09T14:29:34.148Z,1.40
2019-01-09T14:32:02.524Z,1.40
2019-01-09T14:34:30.859Z,1.40
2019-01-09T14:36:59.697Z,1.30
2019-01-09T14:39:28.090Z,1.30
2019-01-09T14:41:56.437Z,1.30
2019-01-09T14:44:24.874Z,1.30
2019-01-09T14:46:53.241Z,1.30
2019-01-09T14:49:21.820Z,1.30
2019-01-09T14:51:50.534Z,1.20
2019-01-09T14:54:18.830Z,1.20
2019-01-09T14:56:47.296Z,1.20
2019-01-09T14:59:16.013Z,1.10
2019-01-09T15:01:44.321Z,1.10
2019-01-09T15:04:12.675Z,1.00
2019-01-09T15:06:41.749Z,1.00
2019-01-09T15:09:10.448Z,0.90
2019-01-09T15:11:39.158Z,0.80
2019-01-09T15:14:07.755Z,0.80
2019-01-09T15:16:36.068Z,0.70
2019-01-09T15:19:04.425Z,0.70
2019-01-09T15:21:33.262Z,0.70
2019-01-09T15:24:08.458Z,0.70
2019-01-09T15:26:30.151Z,0.80
2019-01-09T15:28:58.850Z,0.80
2019-01-09T15:31:27.212Z,0.80
2019-01-09T15:33:55.591Z,0.80
2019-01-09T15:36:24.007Z,0.90
2019-01-09T15:38:52.819Z,0.90
2019-01-09T15:41:21.647Z,0.90
2019-01-09T15:43:50.347Z,1.00
2019-01-09T15:46:18.877Z,1.00
2019-01-09T15:48:47.437Z,1.00
2019-01-09T15:51:16.248Z,1.00
2019-01-09T15:53:44.572Z,1.00
2019-01-09T15:56:12.960Z,1.00
2019-01-09T15:58:41.854Z,1.00
2019-01-09T16:01:10.218Z,1.00
2019-01-09T16:03:38.554Z,1.00
2019-01-09T16:06:07.435Z,1.00
2019-01-09T16:08:35.927Z,1.00
2019-01-09T16:11:04.597Z,1.00
2019-01-09T16:13:33.339Z,1.00
2019-01-09T16:16:01.783Z,1.00
2019-01-09T16:18:30.215Z,1.00
2019-01-09T16:20:58.778Z,1.00
2019-01-09T16:23:27.372Z,1.00
2019-01-09T16:25:56.208Z,1.00
2019-01-09T16:28:24.980Z,1.10
2019-01-09T16:31:32.065Z,1.00
2019-01-09T16:34:01.071Z,1.00
2019-01-09T16:36:30.580Z,1.00
2019-01-09T16:38:59.042Z,1.00
2019-01-09T16:41:27.887Z,0.90
2019-01-09T16:43:56.183Z,0.90
2019-01-09T16:46:24.626Z,0.90
2019-01-09T16:48:53.338Z,0.90
2019-01-09T16:51:21.646Z,0.90
2019-01-09T16:53:50.408Z,0.90
2019-01-09T16:56:19.179Z,0.90
2019-01-09T16:58:47.908Z,1.00
2019-01-09T17:01:16.225Z,0.90
2019-01-09T17:03:45.126Z,1.00
2019-01-09T17:06:13.459Z,0.90
2019-01-09T17:08:41.828Z,0.90
2019-01-09T17:11:10.715Z,0.90
2019-01-09T17:13:39.111Z,0.90
2019-01-09T17:16:07.735Z,0.90
2019-01-09T17:18:36.319Z,0.80
2019-01-09T17:21:04.724Z,0.80
2019-01-09T17:23:33.034Z,0.80
2019-01-09T17:26:01.759Z,0.70
2019-01-09T17:28:30.098Z,0.70
2019-01-09T17:30:58.376Z,0.70
2019-01-09T17:33:26.876Z,0.70
2019-01-09T17:35:55.227Z,0.70
2019-01-09T17:38:23.790Z,0.70
2019-01-09T17:40:52.219Z,0.70
2019-01-09T17:43:20.517Z,0.70
2019-01-09T17:45:48.924Z,0.70
2019-01-09T17:48:17.459Z,0.70
2019-01-09T17:50:45.896Z,0.70
2019-01-09T17:53:14.296Z,0.70
2019-01-09T17:55:43.210Z,0.60
2019-01-09T17:58:11.688Z,0.60
2019-01-09T18:00:41.649Z,0.50
2019-01-09T18:03:10.491Z,0.40
2019-01-09T18:05:39.460Z,0.40
2019-01-09T18:08:10.807Z,0.30
2019-01-09T18:10:36.691Z,0.30
2019-01-09T18:13:05.287Z,0.20
2019-01-09T18:15:34.224Z,0.20
2019-01-09T18:18:02.584Z,0.10
2019-01-09T18:20:30.878Z,0.10
2019-01-09T18:22:59.354Z,0.00
2019-01-09T18:25:29.394Z,0.00
2019-01-09T18:27:57.896Z,0.00
2019-01-09T18:30:37.842Z,0.00
2019-01-09T18:33:09.637Z,0.00
2019-01-09T18:35:47.630Z,0.00
2019-01-09T18:38:21.970Z,0.00
2019-01-09T18:41:06.000Z,0.00
2019-01-09T18:43:42.150Z,0.00
2019-01-09T18:46:34.013Z,0.00
2019-01-09T18:49:43.215Z,0.00
2019-01-09T18:52:21.907Z,0.00
2019-01-09T18:54:50.307Z,-0.10
2019-01-09T18:57:18.628Z,-0.10
2019-01-09T18:59:47.657Z,-0.20
2019-01-09T19:02:16.048Z,-0.20
2019-01-09T19:04:44.464Z,-0.20
2019-01-09T19:07:12.948Z,-0.20
2019-01-09T19:09:41.471Z,-0.30
2019-01-09T19:12:09.845Z,-0.30
2019-01-09T19:14:38.992Z,-0.30
2019-01-09T19:17:07.499Z,-0.30
2019-01-09T19:19:35.921Z,-0.40
2019-01-09T19:22:04.896Z,-0.40
2019-01-09T19:24:33.450Z,-0.40
2019-01-09T19:27:01.834Z,-0.40
2019-01-09T19:29:30.644Z,-0.50
2019-01-09T19:31:59.273Z,-0.50
2019-01-09T19:34:27.923Z,-0.50
2019-01-09T19:36:56.698Z,-0.50
2019-01-09T19:39:25.373Z,-0.50
2019-01-09T19:41:53.757Z,-0.50
2019-01-09T19:44:22.596Z,-0.60
2019-01-09T19:46:50.978Z,-0.60
2019-01-09T19:49:19.320Z,-0.60
2019-01-09T19:51:48.037Z,-0.60
2019-01-09T19:54:16.874Z,-0.60
2019-01-09T19:56:45.197Z,-0.60
2019-01-09T19:59:13.936Z,-0.50
2019-01-09T20:01:42.259Z,-0.50
2019-01-09T20:04:10.570Z,-0.50
2019-01-09T20:06:39.686Z,-0.50
2019-01-09T20:09:09.288Z,-0.50
2019-01-09T20:11:37.688Z,-0.60
2019-01-09T20:14:06.737Z,-0.60
2019-01-09T20:16:35.141Z,-0.60
2019-01-09T20:19:03.723Z,-0.60
2019-01-09T20:21:32.407Z,-0.60
2019-01-09T20:24:00.936Z,-0.60
2019-01-09T20:26:29.368Z,-0.60
2019-01-09T20:28:58.067Z,-0.50
2019-01-09T20:31:26.572Z,-0.50
2019-01-09T20:33:55.355Z,-0.60
2019-01-09T20:36:24.063Z,-0.50
2019-01-09T20:38:52.843Z,-0.50
2019-01-09T20:41:21.335Z,-0.50
2019-01-09T20:43:50.350Z,-0.50
2019-01-09T20:46:18.735Z,-0.40
2019-01-09T20:48:47.940Z,-0.40
2019-01-09T20:51:16.686Z,-0.40
2019-01-09T20:53:45.001Z,-0.40
2019-01-09T20:56:13.322Z,-0.40
2019-01-09T20:58:42.222Z,-0.40
2019-01-09T21:01:10.703Z,-0.40
2019-01-09T21:03:39.413Z,-0.40
2019-01-09T21:06:07.887Z,-0.40
2019-01-09T21:08:36.290Z,-0.40
2019-01-09T21:11:04.872Z,-0.40
2019-01-09T21:13:33.443Z,-0.40
2019-01-09T21:16:01.941Z,-0.40
2019-01-09T21:18:30.245Z,-0.40
2019-01-09T21:20:58.999Z,-0.40
2019-01-09T21:23:27.372Z,-0.40
2019-01-09T21:25:55.725Z,-0.40
2019-01-09T21:28:24.612Z,-0.40
2019-01-09T21:30:52.981Z,-0.40
2019-01-09T21:33:24.381Z,-0.40
2019-01-09T21:35:53.433Z,-0.40
2019-01-09T21:38:21.755Z,-0.40
2019-01-09T21:40:50.064Z,-0.40
2019-01-09T21:43:18.648Z,-0.40
2019-01-09T21:45:46.954Z,-0.50
2019-01-09T21:48:15.332Z,-0.50
2019-01-09T21:50:43.990Z,-0.50
2019-01-09T21:53:12.344Z,-0.60
2019-01-09T21:55:40.656Z,-0.60
2019-01-09T21:58:09.140Z,-0.60
2019-01-09T22:00:37.638Z,-0.60
2019-01-09T22:03:05.971Z,-0.60
2019-01-09T22:05:34.569Z,-0.60
2019-01-09T22:08:03.089Z,-0.60
2019-01-09T22:10:34.062Z,-0.70
2019-01-09T22:13:03.073Z,-0.70
2019-01-09T22:15:31.478Z,-0.80
2019-01-09T22:17:59.877Z,-0.80
2019-01-09T22:20:28.519Z,-0.80
2019-01-09T22:22:56.988Z,-0.90
2019-01-09T22:25:25.447Z,-0.90
2019-01-09T22:27:54.410Z,-1.00
2019-01-09T22:30:24.759Z,-1.10
2019-01-09T22:32:53.335Z,-1.10
2019-01-09T22:35:22.182Z,-1.20
2019-01-09T22:37:50.685Z,-1.20
2019-01-09T22:40:21.027Z,-1.30
2019-01-09T22:42:48.762Z,-1.30
2019-01-09T22:45:17.327Z,-1.30
2019-01-09T22:47:45.723Z,-1.40
2019-01-09T22:50:17.260Z,-1.40
2019-01-09T22:52:45.866Z,-1.40
2019-01-09T22:55:14.230Z,-1.40
2019-01-09T22:57:42.931Z,-1.40
2019-01-09T23:00:20.150Z,-1.40
2019-01-09T23:02:48.902Z,-1.40
2019-01-09T23:05:17.331Z,-1.50
2019-01-09T23:07:46.781Z,-1.40
2019-01-09T23:10:14.614Z,-1.40
2019-01-09T23:12:43.242Z,-1.50
2019-01-09T23:15:11.739Z,-1.50
2019-01-09T23:17:40.699Z,-1.50
2019-01-09T23:20:09.621Z,-1.60
2019-01-09T23:22:38.104Z,-1.60
2019-01-09T23:25:07.062Z,-1.70
2019-01-09T23:27:35.470Z,-1.70
2019-01-09T23:30:05.044Z,-1.70
2019-01-09T23:32:33.883Z,-1.60
2019-01-09T23:35:02.389Z,-1.60
2019-01-09T23:37:31.100Z,-1.60
2019-01-09T23:40:00.091Z,-1.60
2019-01-09T23:42:30.531Z,-1.60
2019-01-09T23:44:57.112Z,-1.60
2019-01-09T23:47:25.837Z,-1.60
2019-01-09T23:49:54.182Z,-1.50
2019-01-09T23:52:22.662Z,-1.50
2019-01-09T23:54:51.589Z,-1.40
2019-01-09T23:57:19.963Z,-1.40
2019-01-09T23:59:48.298Z,-1.40
